sensor_id;sensor_type;location;lat;lon;timestamp;temperature;humidity
4433;DHT22;2229;48.708;9.706;2023-11-19T00:00:32;8.40;99.90
4433;DHT22;2229;48.708;9.706;2023-11-19T00:03:00;8.40;99.90
4433;DHT22;2229;48.708;9.706;2023-11-19T00:05:31;8.40;99.90
4433;DHT22;2229;48.708;9.706;2023-11-19T00:08:00;8.40;99.90
4433;DHT22;2229;48.708;9.706;2023-11-19T00:10:28;8.40;99.90
4433;DHT22;2229;48.708;9.706;2023-11-19T00:12:56;8.40;99.90
4433;DHT22;2229;48.708;9.706;2023-11-19T00:15:23;8.40;99.90
4433;DHT22;2229;48.708;9.706;2023-11-19T00:17:51;8.40;99.90
4433;DHT22;2229;48.708;9.706;2023-11-19T00:20:19;8.40;99.90
4433;DHT22;2229;48.708;9.706;2023-11-19T00:22:49;8.40;99.90
4433;DHT22;2229;48.708;9.706;2023-11-19T00:25:19;8.40;99.90
4433;DHT22;2229;48.708;9.706;2023-11-19T00:27:47;8.50;99.90
4433;DHT22;2229;48.708;9.706;2023-11-19T00:30:15;8.50;99.90
4433;DHT22;2229;48.708;9.706;2023-11-19T00:32:45;8.50;99.90
4433;DHT22;2229;48.708;9.706;2023-11-19T00:35:12;8.50;99.90
4433;DHT22;2229;48.708;9.706;2023-11-19T00:37:40;8.50;99.90
4433;DHT22;2229;48.708;9.706;2023-11-19T00:40:10;8.50;99.90
4433;DHT22;2229;48.708;9.706;2023-11-19T00:42:38;8.50;99.90
4433;DHT22;2229;48.708;9.706;2023-11-19T00:45:05;8.60;99.90
4433;DHT22;2229;48.708;9.706;2023-11-19T00:47:34;8.60;99.90
4433;DHT22;2229;48.708;9.706;2023-11-19T00:50:01;8.60;99.90
4433;DHT22;2229;48.708;9.706;2023-11-19T00:52:28;8.60;99.90
4433;DHT22;2229;48.708;9.706;2023-11-19T00:54:56;8.60;99.90
4433;DHT22;2229;48.708;9.706;2023-11-19T00:57:25;8.60;99.90
4433;DHT22;2229;48.708;9.706;2023-11-19T00:59:52;8.60;99.90
4433;DHT22;2229;48.708;9.706;2023-11-19T01:02:20;8.60;99.90
4433;DHT22;2229;48.708;9.706;2023-11-19T01:04:47;8.60;99.90
4433;DHT22;2229;48.708;9.706;2023-11-19T01:07:14;8.60;99.90
4433;DHT22;2229;48.708;9.706;2023-11-19T01:09:42;8.70;99.90
4433;DHT22;2229;48.708;9.706;2023-11-19T01:12:09;8.70;99.90
4433;DHT22;2229;48.708;9.706;2023-11-19T01:14:38;8.70;99.90
4433;DHT22;2229;48.708;9.706;2023-11-19T01:17:05;8.70;99.90
4433;DHT22;2229;48.708;9.706;2023-11-19T01:19:33;8.70;99.90
4433;DHT22;2229;48.708;9.706;2023-11-19T01:22:00;8.70;99.90
4433;DHT22;2229;48.708;9.706;2023-11-19T01:24:27;8.70;99.90
4433;DHT22;2229;48.708;9.706;2023-11-19T01:26:56;8.70;99.90
4433;DHT22;2229;48.708;9.706;2023-11-19T01:29:25;8.70;99.90
4433;DHT22;2229;48.708;9.706;2023-11-19T01:31:54;8.70;99.90
4433;DHT22;2229;48.708;9.706;2023-11-19T01:34:21;8.70;99.90
4433;DHT22;2229;48.708;9.706;2023-11-19T01:36:48;8.70;99.90
4433;DHT22;2229;48.708;9.706;2023-11-19T01:39:16;8.70;99.90
4433;DHT22;2229;48.708;9.706;2023-11-19T01:41:43;8.80;99.90
4433;DHT22;2229;48.708;9.706;2023-11-19T01:44:11;8.80;99.90
4433;DHT22;2229;48.708;9.706;2023-11-19T01:46:40;8.80;99.90
4433;DHT22;2229;48.708;9.706;2023-11-19T01:49:10;8.80;99.90
4433;DHT22;2229;48.708;9.706;2023-11-19T01:51:38;8.80;99.90
4433;DHT22;2229;48.708;9.706;2023-11-19T01:54:06;8.80;99.90
4433;DHT22;2229;48.708;9.706;2023-11-19T01:56:34;8.80;99.90
4433;DHT22;2229;48.708;9.706;2023-11-19T01:59:02;8.80;99.90
4433;DHT22;2229;48.708;9.706;2023-11-19T02:01:30;8.80;99.90
4433;DHT22;2229;48.708;9.706;2023-11-19T02:03:58;8.80;99.90
4433;DHT22;2229;48.708;9.706;2023-11-19T02:06:28;8.80;99.90
4433;DHT22;2229;48.708;9.706;2023-11-19T02:08:55;8.90;99.90
4433;DHT22;2229;48.708;9.706;2023-11-19T02:11:23;8.90;99.90
4433;DHT22;2229;48.708;9.706;2023-11-19T02:13:55;8.90;99.90
4433;DHT22;2229;48.708;9.706;2023-11-19T02:16:22;8.90;99.90
4433;DHT22;2229;48.708;9.706;2023-11-19T02:18:49;8.90;99.90
4433;DHT22;2229;48.708;9.706;2023-11-19T02:21:17;8.90;99.90
4433;DHT22;2229;48.708;9.706;2023-11-19T02:23:45;8.90;99.90
4433;DHT22;2229;48.708;9.706;2023-11-19T02:26:16;8.90;99.90
4433;DHT22;2229;48.708;9.706;2023-11-19T02:28:46;9.00;99.90
4433;DHT22;2229;48.708;9.706;2023-11-19T02:31:13;9.00;99.90
4433;DHT22;2229;48.708;9.706;2023-11-19T02:33:40;9.00;99.90
4433;DHT22;2229;48.708;9.706;2023-11-19T02:36:08;9.00;99.90
4433;DHT22;2229;48.708;9.706;2023-11-19T02:38:36;9.00;99.90
4433;DHT22;2229;48.708;9.706;2023-11-19T02:41:04;9.00;99.90
4433;DHT22;2229;48.708;9.706;2023-11-19T02:43:33;9.00;99.90
4433;DHT22;2229;48.708;9.706;2023-11-19T02:46:02;9.00;99.90
4433;DHT22;2229;48.708;9.706;2023-11-19T02:48:32;9.00;99.90
4433;DHT22;2229;48.708;9.706;2023-11-19T02:51:01;9.10;99.90
4433;DHT22;2229;48.708;9.706;2023-11-19T02:53:29;9.10;99.90
4433;DHT22;2229;48.708;9.706;2023-11-19T02:55:56;9.20;99.90
4433;DHT22;2229;48.708;9.706;2023-11-19T02:58:28;9.20;99.90
4433;DHT22;2229;48.708;9.706;2023-11-19T03:00:56;9.30;99.90
4433;DHT22;2229;48.708;9.706;2023-11-19T03:03:27;9.30;99.90
4433;DHT22;2229;48.708;9.706;2023-11-19T03:05:57;9.30;99.90
4433;DHT22;2229;48.708;9.706;2023-11-19T03:08:24;9.40;99.90
4433;DHT22;2229;48.708;9.706;2023-11-19T03:10:51;9.40;99.90
4433;DHT22;2229;48.708;9.706;2023-11-19T03:13:18;9.50;99.90
4433;DHT22;2229;48.708;9.706;2023-11-19T03:15:45;9.50;99.90
4433;DHT22;2229;48.708;9.706;2023-11-19T03:18:13;9.50;99.90
4433;DHT22;2229;48.708;9.706;2023-11-19T03:20:41;9.50;99.90
4433;DHT22;2229;48.708;9.706;2023-11-19T03:23:08;9.50;99.90
4433;DHT22;2229;48.708;9.706;2023-11-19T03:25:35;9.50;99.90
4433;DHT22;2229;48.708;9.706;2023-11-19T03:28:03;9.60;99.90
4433;DHT22;2229;48.708;9.706;2023-11-19T03:30:31;9.60;99.90
4433;DHT22;2229;48.708;9.706;2023-11-19T03:32:58;9.60;99.90
4433;DHT22;2229;48.708;9.706;2023-11-19T03:35:26;9.60;99.90
4433;DHT22;2229;48.708;9.706;2023-11-19T03:37:56;9.60;99.90
4433;DHT22;2229;48.708;9.706;2023-11-19T03:40:24;9.60;99.90
4433;DHT22;2229;48.708;9.706;2023-11-19T03:42:51;9.70;99.90
4433;DHT22;2229;48.708;9.706;2023-11-19T03:45:18;9.60;99.90
4433;DHT22;2229;48.708;9.706;2023-11-19T03:47:48;9.70;99.90
4433;DHT22;2229;48.708;9.706;2023-11-19T03:50:16;9.70;99.90
4433;DHT22;2229;48.708;9.706;2023-11-19T03:52:46;9.70;99.90
4433;DHT22;2229;48.708;9.706;2023-11-19T03:55:14;9.70;99.90
4433;DHT22;2229;48.708;9.706;2023-11-19T03:57:41;9.70;99.90
4433;DHT22;2229;48.708;9.706;2023-11-19T04:00:09;9.70;99.90
4433;DHT22;2229;48.708;9.706;2023-11-19T04:02:40;9.70;99.90
4433;DHT22;2229;48.708;9.706;2023-11-19T04:05:07;9.70;99.90
4433;DHT22;2229;48.708;9.706;2023-11-19T04:07:36;9.70;99.90
4433;DHT22;2229;48.708;9.706;2023-11-19T04:10:04;9.80;99.90
4433;DHT22;2229;48.708;9.706;2023-11-19T04:12:32;9.80;99.90
4433;DHT22;2229;48.708;9.706;2023-11-19T04:15:07;9.80;99.90
4433;DHT22;2229;48.708;9.706;2023-11-19T04:17:34;9.80;99.90
4433;DHT22;2229;48.708;9.706;2023-11-19T04:20:01;9.80;99.90
4433;DHT22;2229;48.708;9.706;2023-11-19T04:22:30;9.80;99.90
4433;DHT22;2229;48.708;9.706;2023-11-19T04:24:57;9.80;99.90
4433;DHT22;2229;48.708;9.706;2023-11-19T04:27:24;9.80;99.90
4433;DHT22;2229;48.708;9.706;2023-11-19T04:29:52;9.80;99.90
4433;DHT22;2229;48.708;9.706;2023-11-19T04:32:20;9.80;99.90
4433;DHT22;2229;48.708;9.706;2023-11-19T04:34:49;9.90;99.90
4433;DHT22;2229;48.708;9.706;2023-11-19T04:37:16;9.90;99.90
4433;DHT22;2229;48.708;9.706;2023-11-19T04:39:44;9.90;99.90
4433;DHT22;2229;48.708;9.706;2023-11-19T04:42:12;9.90;99.90
4433;DHT22;2229;48.708;9.706;2023-11-19T04:44:43;10.00;99.90
4433;DHT22;2229;48.708;9.706;2023-11-19T04:47:12;10.00;99.90
4433;DHT22;2229;48.708;9.706;2023-11-19T04:49:40;10.00;99.90
4433;DHT22;2229;48.708;9.706;2023-11-19T04:52:08;10.00;99.90
4433;DHT22;2229;48.708;9.706;2023-11-19T04:54:41;10.00;99.90
4433;DHT22;2229;48.708;9.706;2023-11-19T04:57:09;10.10;99.90
4433;DHT22;2229;48.708;9.706;2023-11-19T04:59:37;10.10;99.90
4433;DHT22;2229;48.708;9.706;2023-11-19T05:02:04;10.10;99.90
4433;DHT22;2229;48.708;9.706;2023-11-19T05:04:33;10.10;99.90
4433;DHT22;2229;48.708;9.706;2023-11-19T05:07:01;10.10;99.90
4433;DHT22;2229;48.708;9.706;2023-11-19T05:09:28;10.20;99.90
4433;DHT22;2229;48.708;9.706;2023-11-19T05:11:55;10.20;99.90
4433;DHT22;2229;48.708;9.706;2023-11-19T05:14:22;10.20;99.90
4433;DHT22;2229;48.708;9.706;2023-11-19T05:16:50;10.30;99.90
4433;DHT22;2229;48.708;9.706;2023-11-19T05:19:17;10.30;99.90
4433;DHT22;2229;48.708;9.706;2023-11-19T05:21:45;10.30;99.90
4433;DHT22;2229;48.708;9.706;2023-11-19T05:24:12;10.40;99.90
4433;DHT22;2229;48.708;9.706;2023-11-19T05:26:39;10.40;99.90
4433;DHT22;2229;48.708;9.706;2023-11-19T05:29:07;10.40;99.90
4433;DHT22;2229;48.708;9.706;2023-11-19T05:31:34;10.40;99.90
4433;DHT22;2229;48.708;9.706;2023-11-19T05:34:01;10.50;99.90
4433;DHT22;2229;48.708;9.706;2023-11-19T05:36:28;10.50;99.90
4433;DHT22;2229;48.708;9.706;2023-11-19T05:38:57;10.50;99.90
4433;DHT22;2229;48.708;9.706;2023-11-19T05:41:24;10.60;99.90
4433;DHT22;2229;48.708;9.706;2023-11-19T05:43:51;10.60;99.90
4433;DHT22;2229;48.708;9.706;2023-11-19T05:46:18;10.60;99.90
4433;DHT22;2229;48.708;9.706;2023-11-19T05:48:45;10.60;99.90
4433;DHT22;2229;48.708;9.706;2023-11-19T05:51:12;10.70;99.90
4433;DHT22;2229;48.708;9.706;2023-11-19T05:53:40;10.70;99.90
4433;DHT22;2229;48.708;9.706;2023-11-19T05:56:10;10.70;99.90
4433;DHT22;2229;48.708;9.706;2023-11-19T05:58:37;10.70;99.90
4433;DHT22;2229;48.708;9.706;2023-11-19T06:01:06;10.80;99.90
4433;DHT22;2229;48.708;9.706;2023-11-19T06:03:34;10.80;99.90
4433;DHT22;2229;48.708;9.706;2023-11-19T06:06:01;10.80;99.90
4433;DHT22;2229;48.708;9.706;2023-11-19T06:08:28;10.80;99.90
4433;DHT22;2229;48.708;9.706;2023-11-19T06:10:56;10.80;99.90
4433;DHT22;2229;48.708;9.706;2023-11-19T06:13:26;10.80;99.90
4433;DHT22;2229;48.708;9.706;2023-11-19T06:15:56;10.90;99.90
4433;DHT22;2229;48.708;9.706;2023-11-19T06:18:23;10.90;99.90
4433;DHT22;2229;48.708;9.706;2023-11-19T06:20:50;11.00;99.90
4433;DHT22;2229;48.708;9.706;2023-11-19T06:23:18;10.90;99.90
4433;DHT22;2229;48.708;9.706;2023-11-19T06:25:45;11.00;99.90
4433;DHT22;2229;48.708;9.706;2023-11-19T06:28:14;11.00;99.90
4433;DHT22;2229;48.708;9.706;2023-11-19T06:30:45;11.10;99.90
4433;DHT22;2229;48.708;9.706;2023-11-19T06:33:12;11.10;99.90
4433;DHT22;2229;48.708;9.706;2023-11-19T06:35:40;11.10;99.90
4433;DHT22;2229;48.708;9.706;2023-11-19T06:38:07;11.20;99.90
4433;DHT22;2229;48.708;9.706;2023-11-19T06:40:34;11.20;99.90
4433;DHT22;2229;48.708;9.706;2023-11-19T06:43:02;11.20;99.90
4433;DHT22;2229;48.708;9.706;2023-11-19T06:45:30;11.30;99.90
4433;DHT22;2229;48.708;9.706;2023-11-19T06:48:00;11.30;99.90
4433;DHT22;2229;48.708;9.706;2023-11-19T06:50:29;11.30;99.90
4433;DHT22;2229;48.708;9.706;2023-11-19T06:52:56;11.30;99.90
4433;DHT22;2229;48.708;9.706;2023-11-19T06:55:24;11.30;99.90
4433;DHT22;2229;48.708;9.706;2023-11-19T06:57:51;11.40;99.90
4433;DHT22;2229;48.708;9.706;2023-11-19T07:00:19;11.40;99.90
4433;DHT22;2229;48.708;9.706;2023-11-19T07:02:47;11.50;99.90
4433;DHT22;2229;48.708;9.706;2023-11-19T07:05:17;11.40;99.90
4433;DHT22;2229;48.708;9.706;2023-11-19T07:07:44;11.50;99.90
4433;DHT22;2229;48.708;9.706;2023-11-19T07:10:12;11.50;99.90
4433;DHT22;2229;48.708;9.706;2023-11-19T07:12:39;11.60;99.90
4433;DHT22;2229;48.708;9.706;2023-11-19T07:15:08;11.50;99.90
4433;DHT22;2229;48.708;9.706;2023-11-19T07:17:36;11.60;99.90
4433;DHT22;2229;48.708;9.706;2023-11-19T07:20:04;11.60;99.90
4433;DHT22;2229;48.708;9.706;2023-11-19T07:22:33;11.60;99.90
4433;DHT22;2229;48.708;9.706;2023-11-19T07:25:00;11.60;99.90
4433;DHT22;2229;48.708;9.706;2023-11-19T07:27:28;11.80;99.90
4433;DHT22;2229;48.708;9.706;2023-11-19T07:29:55;11.90;99.90
4433;DHT22;2229;48.708;9.706;2023-11-19T07:32:22;12.00;99.90
4433;DHT22;2229;48.708;9.706;2023-11-19T07:34:49;12.00;99.90
4433;DHT22;2229;48.708;9.706;2023-11-19T07:37:16;11.90;99.90
4433;DHT22;2229;48.708;9.706;2023-11-19T07:39:45;12.00;99.90
4433;DHT22;2229;48.708;9.706;2023-11-19T07:42:13;11.90;99.90
4433;DHT22;2229;48.708;9.706;2023-11-19T07:44:40;11.90;99.90
4433;DHT22;2229;48.708;9.706;2023-11-19T07:47:07;11.80;99.90
4433;DHT22;2229;48.708;9.706;2023-11-19T07:49:34;11.90;99.90
4433;DHT22;2229;48.708;9.706;2023-11-19T07:52:02;11.90;99.90
4433;DHT22;2229;48.708;9.706;2023-11-19T07:54:29;11.80;99.90
4433;DHT22;2229;48.708;9.706;2023-11-19T07:56:58;11.80;99.90
4433;DHT22;2229;48.708;9.706;2023-11-19T07:59:25;11.80;99.90
4433;DHT22;2229;48.708;9.706;2023-11-19T08:01:52;11.80;99.90
4433;DHT22;2229;48.708;9.706;2023-11-19T08:04:19;11.80;99.90
4433;DHT22;2229;48.708;9.706;2023-11-19T08:06:46;11.80;99.90
4433;DHT22;2229;48.708;9.706;2023-11-19T08:09:13;11.80;99.90
4433;DHT22;2229;48.708;9.706;2023-11-19T08:11:41;11.80;99.90
4433;DHT22;2229;48.708;9.706;2023-11-19T08:14:10;11.80;99.90
4433;DHT22;2229;48.708;9.706;2023-11-19T08:16:39;11.90;99.90
4433;DHT22;2229;48.708;9.706;2023-11-19T08:19:06;11.90;99.90
4433;DHT22;2229;48.708;9.706;2023-11-19T08:21:34;11.90;99.90
4433;DHT22;2229;48.708;9.706;2023-11-19T08:24:01;11.90;99.90
4433;DHT22;2229;48.708;9.706;2023-11-19T08:26:29;12.00;99.90
4433;DHT22;2229;48.708;9.706;2023-11-19T08:28:56;12.00;99.90
4433;DHT22;2229;48.708;9.706;2023-11-19T08:31:26;12.10;99.90
4433;DHT22;2229;48.708;9.706;2023-11-19T08:33:53;12.10;99.90
4433;DHT22;2229;48.708;9.706;2023-11-19T08:36:20;12.20;99.90
4433;DHT22;2229;48.708;9.706;2023-11-19T08:38:47;12.20;99.90
4433;DHT22;2229;48.708;9.706;2023-11-19T08:41:16;12.20;99.90
4433;DHT22;2229;48.708;9.706;2023-11-19T08:43:43;12.30;99.90
4433;DHT22;2229;48.708;9.706;2023-11-19T08:46:11;12.30;99.90
4433;DHT22;2229;48.708;9.706;2023-11-19T08:48:40;12.50;99.90
4433;DHT22;2229;48.708;9.706;2023-11-19T08:51:07;12.60;99.90
4433;DHT22;2229;48.708;9.706;2023-11-19T08:53:34;12.70;99.90
4433;DHT22;2229;48.708;9.706;2023-11-19T08:56:02;12.80;99.90
4433;DHT22;2229;48.708;9.706;2023-11-19T08:58:29;12.90;99.90
4433;DHT22;2229;48.708;9.706;2023-11-19T09:00:56;12.90;99.90
4433;DHT22;2229;48.708;9.706;2023-11-19T09:03:24;13.00;99.90
4433;DHT22;2229;48.708;9.706;2023-11-19T09:05:53;13.10;99.90
4433;DHT22;2229;48.708;9.706;2023-11-19T09:08:20;13.60;99.90
4433;DHT22;2229;48.708;9.706;2023-11-19T09:10:48;14.30;99.90
4433;DHT22;2229;48.708;9.706;2023-11-19T09:13:15;14.70;99.90
4433;DHT22;2229;48.708;9.706;2023-11-19T09:15:42;15.20;99.90
4433;DHT22;2229;48.708;9.706;2023-11-19T09:18:09;15.50;99.90
4433;DHT22;2229;48.708;9.706;2023-11-19T09:20:36;15.50;99.90
4433;DHT22;2229;48.708;9.706;2023-11-19T09:23:06;15.20;99.90
4433;DHT22;2229;48.708;9.706;2023-11-19T09:25:34;15.00;99.90
4433;DHT22;2229;48.708;9.706;2023-11-19T09:28:02;14.80;99.90
4433;DHT22;2229;48.708;9.706;2023-11-19T09:30:30;14.60;99.90
4433;DHT22;2229;48.708;9.706;2023-11-19T09:32:59;14.50;99.90
4433;DHT22;2229;48.708;9.706;2023-11-19T09:35:26;15.10;99.90
4433;DHT22;2229;48.708;9.706;2023-11-19T09:37:54;16.50;99.90
4433;DHT22;2229;48.708;9.706;2023-11-19T09:40:22;18.20;99.90
4433;DHT22;2229;48.708;9.706;2023-11-19T09:42:50;18.60;99.90
4433;DHT22;2229;48.708;9.706;2023-11-19T09:45:17;18.30;99.90
4433;DHT22;2229;48.708;9.706;2023-11-19T09:47:47;17.90;99.90
4433;DHT22;2229;48.708;9.706;2023-11-19T09:50:16;17.50;99.90
4433;DHT22;2229;48.708;9.706;2023-11-19T09:52:44;16.90;99.90
4433;DHT22;2229;48.708;9.706;2023-11-19T09:55:11;16.40;99.90
4433;DHT22;2229;48.708;9.706;2023-11-19T09:57:41;15.90;99.90
4433;DHT22;2229;48.708;9.706;2023-11-19T10:00:10;15.40;99.90
4433;DHT22;2229;48.708;9.706;2023-11-19T10:02:39;15.00;99.90
4433;DHT22;2229;48.708;9.706;2023-11-19T10:05:07;14.70;99.90
4433;DHT22;2229;48.708;9.706;2023-11-19T10:07:36;14.90;99.90
4433;DHT22;2229;48.708;9.706;2023-11-19T10:10:05;16.10;99.90
4433;DHT22;2229;48.708;9.706;2023-11-19T10:12:33;17.80;99.90
4433;DHT22;2229;48.708;9.706;2023-11-19T10:15:02;18.50;99.90
4433;DHT22;2229;48.708;9.706;2023-11-19T10:17:34;18.10;99.90
4433;DHT22;2229;48.708;9.706;2023-11-19T10:20:03;17.70;99.90
4433;DHT22;2229;48.708;9.706;2023-11-19T10:22:30;17.90;99.90
4433;DHT22;2229;48.708;9.706;2023-11-19T10:25:03;17.90;99.90
4433;DHT22;2229;48.708;9.706;2023-11-19T10:27:30;18.20;99.90
4433;DHT22;2229;48.708;9.706;2023-11-19T10:30:01;18.60;99.40
4433;DHT22;2229;48.708;9.706;2023-11-19T10:32:29;18.80;98.30
4433;DHT22;2229;48.708;9.706;2023-11-19T10:35:05;19.00;98.10
4433;DHT22;2229;48.708;9.706;2023-11-19T10:37:33;19.00;97.70
4433;DHT22;2229;48.708;9.706;2023-11-19T10:40:04;19.00;97.60
4433;DHT22;2229;48.708;9.706;2023-11-19T10:42:32;19.10;97.80
4433;DHT22;2229;48.708;9.706;2023-11-19T10:44:59;19.20;96.80
4433;DHT22;2229;48.708;9.706;2023-11-19T10:47:32;19.30;97.00
4433;DHT22;2229;48.708;9.706;2023-11-19T10:50:04;19.50;97.00
4433;DHT22;2229;48.708;9.706;2023-11-19T10:52:33;19.70;95.80
4433;DHT22;2229;48.708;9.706;2023-11-19T10:55:05;19.50;94.80
4433;DHT22;2229;48.708;9.706;2023-11-19T10:57:36;18.90;94.60
4433;DHT22;2229;48.708;9.706;2023-11-19T11:00:08;18.30;94.60
4433;DHT22;2229;48.708;9.706;2023-11-19T11:02:41;17.60;95.20
4433;DHT22;2229;48.708;9.706;2023-11-19T11:05:11;17.10;96.00
4433;DHT22;2229;48.708;9.706;2023-11-19T11:07:39;16.70;96.60
4433;DHT22;2229;48.708;9.706;2023-11-19T11:10:08;16.30;97.10
4433;DHT22;2229;48.708;9.706;2023-11-19T11:12:37;16.00;97.80
4433;DHT22;2229;48.708;9.706;2023-11-19T11:15:06;15.70;98.30
4433;DHT22;2229;48.708;9.706;2023-11-19T11:17:34;15.70;99.10
4433;DHT22;2229;48.708;9.706;2023-11-19T11:20:05;15.90;99.90
4433;DHT22;2229;48.708;9.706;2023-11-19T11:25:38;16.40;99.30
4433;DHT22;2229;48.708;9.706;2023-11-19T11:28:18;16.30;99.60
4433;DHT22;2229;48.708;9.706;2023-11-19T11:31:01;16.40;99.90
4433;DHT22;2229;48.708;9.706;2023-11-19T11:33:41;16.50;99.70
4433;DHT22;2229;48.708;9.706;2023-11-19T11:36:17;16.40;99.60
4433;DHT22;2229;48.708;9.706;2023-11-19T11:38:47;16.30;99.90
4433;DHT22;2229;48.708;9.706;2023-11-19T11:41:17;16.10;99.70
4433;DHT22;2229;48.708;9.706;2023-11-19T11:43:48;16.00;99.90
4433;DHT22;2229;48.708;9.706;2023-11-19T11:46:54;15.90;99.90
4433;DHT22;2229;48.708;9.706;2023-11-19T11:49:31;15.90;99.90
4433;DHT22;2229;48.708;9.706;2023-11-19T11:52:03;15.80;99.90
4433;DHT22;2229;48.708;9.706;2023-11-19T11:54:30;15.70;99.90
4433;DHT22;2229;48.708;9.706;2023-11-19T11:57:06;15.50;99.90
4433;DHT22;2229;48.708;9.706;2023-11-19T11:59:50;15.40;99.90
4433;DHT22;2229;48.708;9.706;2023-11-19T12:02:20;15.30;99.90
4433;DHT22;2229;48.708;9.706;2023-11-19T12:04:51;15.20;99.90
4433;DHT22;2229;48.708;9.706;2023-11-19T12:07:21;15.10;99.90
4433;DHT22;2229;48.708;9.706;2023-11-19T12:09:51;15.00;99.90
4433;DHT22;2229;48.708;9.706;2023-11-19T12:12:22;15.00;99.90
4433;DHT22;2229;48.708;9.706;2023-11-19T12:15:08;15.00;99.90
4433;DHT22;2229;48.708;9.706;2023-11-19T12:17:41;15.10;99.90
4433;DHT22;2229;48.708;9.706;2023-11-19T12:20:12;15.10;99.90
4433;DHT22;2229;48.708;9.706;2023-11-19T12:22:41;15.20;99.90
4433;DHT22;2229;48.708;9.706;2023-11-19T12:25:10;15.40;99.90
4433;DHT22;2229;48.708;9.706;2023-11-19T12:27:39;15.60;99.90
4433;DHT22;2229;48.708;9.706;2023-11-19T12:30:07;15.80;99.90
4433;DHT22;2229;48.708;9.706;2023-11-19T12:32:42;16.10;99.90
4433;DHT22;2229;48.708;9.706;2023-11-19T12:35:13;16.40;99.90
4433;DHT22;2229;48.708;9.706;2023-11-19T12:37:42;16.50;99.90
4433;DHT22;2229;48.708;9.706;2023-11-19T12:40:15;16.60;99.90
4433;DHT22;2229;48.708;9.706;2023-11-19T12:42:43;16.60;99.90
4433;DHT22;2229;48.708;9.706;2023-11-19T12:45:11;16.60;99.90
4433;DHT22;2229;48.708;9.706;2023-11-19T12:47:39;16.60;99.90
4433;DHT22;2229;48.708;9.706;2023-11-19T12:50:07;16.60;99.90
4433;DHT22;2229;48.708;9.706;2023-11-19T12:52:36;16.50;99.90
4433;DHT22;2229;48.708;9.706;2023-11-19T12:55:05;16.60;99.90
4433;DHT22;2229;48.708;9.706;2023-11-19T12:57:50;16.50;99.90
4433;DHT22;2229;48.708;9.706;2023-11-19T13:00:22;16.60;99.90
4433;DHT22;2229;48.708;9.706;2023-11-19T13:02:51;16.60;99.60
4433;DHT22;2229;48.708;9.706;2023-11-19T13:05:29;16.60;99.00
4433;DHT22;2229;48.708;9.706;2023-11-19T13:08:01;16.60;98.10
4433;DHT22;2229;48.708;9.706;2023-11-19T13:10:29;16.50;97.70
4433;DHT22;2229;48.708;9.706;2023-11-19T13:13:01;16.50;97.40
4433;DHT22;2229;48.708;9.706;2023-11-19T13:15:28;16.50;96.90
4433;DHT22;2229;48.708;9.706;2023-11-19T13:17:55;16.50;96.70
4433;DHT22;2229;48.708;9.706;2023-11-19T13:20:41;16.30;96.30
4433;DHT22;2229;48.708;9.706;2023-11-19T13:23:10;16.10;96.70
4433;DHT22;2229;48.708;9.706;2023-11-19T13:25:38;16.10;96.80
4433;DHT22;2229;48.708;9.706;2023-11-19T13:28:05;16.20;97.00
4433;DHT22;2229;48.708;9.706;2023-11-19T13:30:32;16.20;97.10
4433;DHT22;2229;48.708;9.706;2023-11-19T13:32:59;16.30;97.50
4433;DHT22;2229;48.708;9.706;2023-11-19T13:35:27;16.30;97.20
4433;DHT22;2229;48.708;9.706;2023-11-19T13:37:57;16.40;97.20
4433;DHT22;2229;48.708;9.706;2023-11-19T13:40:26;16.50;96.90
4433;DHT22;2229;48.708;9.706;2023-11-19T13:42:53;16.40;96.50
4433;DHT22;2229;48.708;9.706;2023-11-19T13:45:21;16.20;96.20
4433;DHT22;2229;48.708;9.706;2023-11-19T13:47:49;16.00;96.00
4433;DHT22;2229;48.708;9.706;2023-11-19T13:50:16;15.80;95.80
4433;DHT22;2229;48.708;9.706;2023-11-19T13:52:43;15.60;95.80
4433;DHT22;2229;48.708;9.706;2023-11-19T13:55:14;15.50;96.00
4433;DHT22;2229;48.708;9.706;2023-11-19T13:57:43;15.30;96.00
4433;DHT22;2229;48.708;9.706;2023-11-19T14:00:13;15.20;96.10
4433;DHT22;2229;48.708;9.706;2023-11-19T14:02:43;15.10;96.20
4433;DHT22;2229;48.708;9.706;2023-11-19T14:05:11;15.10;96.30
4433;DHT22;2229;48.708;9.706;2023-11-19T14:07:38;15.00;96.30
4433;DHT22;2229;48.708;9.706;2023-11-19T14:10:07;15.00;96.40
4433;DHT22;2229;48.708;9.706;2023-11-19T14:12:35;15.00;96.40
4433;DHT22;2229;48.708;9.706;2023-11-19T14:15:05;14.90;96.50
4433;DHT22;2229;48.708;9.706;2023-11-19T14:17:36;14.80;96.60
4433;DHT22;2229;48.708;9.706;2023-11-19T14:20:04;14.80;96.80
4433;DHT22;2229;48.708;9.706;2023-11-19T14:22:38;14.60;97.00
4433;DHT22;2229;48.708;9.706;2023-11-19T14:25:06;14.60;97.00
4433;DHT22;2229;48.708;9.706;2023-11-19T14:27:36;14.50;97.00
4433;DHT22;2229;48.708;9.706;2023-11-19T14:30:08;14.40;97.20
4433;DHT22;2229;48.708;9.706;2023-11-19T14:32:37;14.30;97.20
4433;DHT22;2229;48.708;9.706;2023-11-19T14:35:06;14.30;97.10
4433;DHT22;2229;48.708;9.706;2023-11-19T14:37:36;14.20;97.20
4433;DHT22;2229;48.708;9.706;2023-11-19T14:40:07;14.10;97.10
4433;DHT22;2229;48.708;9.706;2023-11-19T14:42:37;13.80;96.90
4433;DHT22;2229;48.708;9.706;2023-11-19T14:45:09;14.00;97.10
4433;DHT22;2229;48.708;9.706;2023-11-19T14:47:38;13.90;97.10
4433;DHT22;2229;48.708;9.706;2023-11-19T14:50:08;13.90;97.10
4433;DHT22;2229;48.708;9.706;2023-11-19T14:52:36;13.90;96.90
4433;DHT22;2229;48.708;9.706;2023-11-19T14:55:04;14.00;96.70
4433;DHT22;2229;48.708;9.706;2023-11-19T14:57:31;13.90;96.40
4433;DHT22;2229;48.708;9.706;2023-11-19T15:00:01;13.90;96.30
4433;DHT22;2229;48.708;9.706;2023-11-19T15:02:36;13.90;96.20
4433;DHT22;2229;48.708;9.706;2023-11-19T15:05:04;14.00;96.00
4433;DHT22;2229;48.708;9.706;2023-11-19T15:07:35;14.00;96.00
4433;DHT22;2229;48.708;9.706;2023-11-19T15:10:03;13.90;96.00
4433;DHT22;2229;48.708;9.706;2023-11-19T15:12:35;13.90;96.00
4433;DHT22;2229;48.708;9.706;2023-11-19T15:15:07;13.80;96.10
4433;DHT22;2229;48.708;9.706;2023-11-19T15:17:38;13.80;96.20
4433;DHT22;2229;48.708;9.706;2023-11-19T15:20:06;13.70;96.40
4433;DHT22;2229;48.708;9.706;2023-11-19T15:22:34;13.60;96.60
4433;DHT22;2229;48.708;9.706;2023-11-19T15:25:01;13.50;96.80
4433;DHT22;2229;48.708;9.706;2023-11-19T15:27:29;13.40;97.00
4433;DHT22;2229;48.708;9.706;2023-11-19T15:29:56;13.30;97.10
4433;DHT22;2229;48.708;9.706;2023-11-19T15:32:24;13.20;97.40
4433;DHT22;2229;48.708;9.706;2023-11-19T15:34:53;13.20;97.60
4433;DHT22;2229;48.708;9.706;2023-11-19T15:37:20;13.10;97.80
4433;DHT22;2229;48.708;9.706;2023-11-19T15:39:47;13.10;97.90
4433;DHT22;2229;48.708;9.706;2023-11-19T15:42:17;13.20;98.00
4433;DHT22;2229;48.708;9.706;2023-11-19T15:44:45;13.20;98.10
4433;DHT22;2229;48.708;9.706;2023-11-19T15:47:13;13.20;98.10
4433;DHT22;2229;48.708;9.706;2023-11-19T15:49:41;13.20;98.10
4433;DHT22;2229;48.708;9.706;2023-11-19T15:52:10;13.10;98.10
4433;DHT22;2229;48.708;9.706;2023-11-19T15:54:43;13.10;98.20
4433;DHT22;2229;48.708;9.706;2023-11-19T15:57:11;13.00;98.30
4433;DHT22;2229;48.708;9.706;2023-11-19T15:59:39;13.00;98.40
4433;DHT22;2229;48.708;9.706;2023-11-19T16:02:07;13.00;98.50
4433;DHT22;2229;48.708;9.706;2023-11-19T16:04:37;12.90;98.40
4433;DHT22;2229;48.708;9.706;2023-11-19T16:07:09;12.90;98.50
4433;DHT22;2229;48.708;9.706;2023-11-19T16:09:36;12.90;98.60
4433;DHT22;2229;48.708;9.706;2023-11-19T16:12:04;12.90;98.50
4433;DHT22;2229;48.708;9.706;2023-11-19T16:14:31;12.80;98.50
4433;DHT22;2229;48.708;9.706;2023-11-19T16:16:59;12.80;98.50
4433;DHT22;2229;48.708;9.706;2023-11-19T16:19:26;12.80;98.50